createdAt,value
2018-04-17T00:00:07.498Z,25.08
2018-04-17T00:01:14.308Z,24.65
2018-04-17T00:02:21.151Z,25.02
2018-04-17T00:03:27.482Z,27.13
2018-04-17T00:04:38.468Z,24.52
2018-04-17T00:05:49.471Z,29.52
2018-04-17T00:06:56.523Z,29.60
2018-04-17T00:08:05.652Z,29.27
2018-04-17T00:09:17.530Z,28.55
2018-04-17T00:10:23.847Z,30.17
2018-04-17T00:11:30.055Z,30.15
2018-04-17T00:12:36.499Z,27.08
2018-04-17T00:13:42.881Z,29.67
2018-04-17T00:14:49.197Z,27.60
2018-04-17T00:15:55.605Z,25.88
2018-04-17T00:17:02.031Z,28.27
2018-04-17T00:18:08.435Z,30.23
2018-04-17T00:19:14.956Z,25.17
2018-04-17T00:20:21.898Z,25.17
2018-04-17T00:21:28.702Z,26.73
2018-04-17T00:22:36.482Z,26.33
2018-04-17T00:23:42.961Z,29.15
2018-04-17T00:24:49.592Z,26.37
2018-04-17T00:25:56.491Z,21.75
2018-04-17T00:27:03.019Z,24.10
2018-04-17T00:28:09.321Z,21.30
2018-04-17T00:29:17.707Z,24.98
2018-04-17T00:30:24.414Z,22.42
2018-04-17T00:31:30.532Z,27.52
2018-04-17T00:32:37.142Z,23.38
2018-04-17T00:33:43.557Z,22.30
2018-04-17T00:34:49.971Z,26.17
2018-04-17T00:35:56.383Z,26.02
2018-04-17T00:37:03.205Z,26.25
2018-04-17T00:38:10.566Z,25.08
2018-04-17T00:39:17.595Z,26.60
2018-04-17T00:40:24.197Z,27.90
2018-04-17T00:41:30.809Z,24.37
2018-04-17T00:42:37.327Z,26.05
2018-04-17T00:43:43.739Z,26.60
2018-04-17T00:44:50.256Z,25.42
2018-04-17T00:45:56.799Z,23.87
2018-04-17T00:47:03.389Z,26.70
2018-04-17T00:48:10.427Z,26.15
2018-04-17T00:49:16.945Z,23.90
2018-04-17T00:50:23.759Z,24.17
2018-04-17T00:51:30.178Z,25.00
2018-04-17T00:52:36.586Z,23.85
2018-04-17T00:54:09.160Z,24.20
2018-04-17T00:55:15.614Z,22.62
2018-04-17T00:56:22.130Z,24.87
2018-04-17T00:57:28.646Z,24.27
2018-04-17T00:58:35.654Z,25.08
2018-04-17T00:59:42.190Z,26.77
2018-04-17T01:00:48.910Z,24.17
2018-04-17T01:01:55.223Z,24.20
2018-04-17T01:03:02.362Z,24.70
2018-04-17T01:04:10.407Z,23.50
2018-04-17T01:05:16.928Z,25.75
2018-04-17T01:06:23.541Z,28.65
2018-04-17T01:07:29.813Z,26.02
2018-04-17T01:08:36.270Z,26.85
2018-04-17T01:09:42.477Z,23.05
2018-04-17T01:10:49.570Z,24.95
2018-04-17T01:11:56.978Z,24.77
2018-04-17T01:13:03.862Z,27.20
2018-04-17T01:14:10.394Z,29.27
2018-04-17T01:15:16.805Z,26.90
2018-04-17T01:16:23.317Z,27.25
2018-04-17T01:17:29.534Z,25.77
2018-04-17T01:18:35.921Z,25.62
2018-04-17T01:19:42.826Z,24.55
2018-04-17T01:20:49.178Z,31.62
2018-04-17T01:21:55.586Z,28.35
2018-04-17T01:23:02.217Z,26.55
2018-04-17T01:24:08.729Z,29.05
2018-04-17T01:25:14.937Z,28.45
2018-04-17T01:26:21.961Z,27.27
2018-04-17T01:27:28.474Z,28.20
2018-04-17T01:28:35.506Z,27.15
2018-04-17T01:29:42.596Z,28.10
2018-04-17T01:30:48.958Z,28.70
2018-04-17T01:31:55.572Z,26.90
2018-04-17T01:33:01.911Z,30.20
2018-04-17T01:34:08.183Z,28.12
2018-04-17T01:35:14.490Z,28.00
2018-04-17T01:36:21.022Z,26.08
2018-04-17T01:37:27.352Z,28.40
2018-04-17T01:38:34.569Z,30.98
2018-04-17T01:39:40.983Z,30.25
2018-04-17T01:40:47.395Z,28.85
2018-04-17T01:41:54.682Z,31.98
2018-04-17T01:43:01.402Z,33.60
2018-04-17T01:44:07.866Z,32.03
2018-04-17T01:45:14.878Z,29.58
2018-04-17T01:46:21.905Z,26.33
2018-04-17T01:47:28.444Z,29.40
2018-04-17T01:48:35.156Z,28.00
2018-04-17T01:49:41.575Z,30.25
2018-04-17T01:50:48.106Z,33.28
2018-04-17T01:51:55.120Z,29.27
2018-04-17T01:53:01.330Z,30.62
2018-04-17T01:54:08.406Z,28.27
2018-04-17T01:55:14.876Z,28.65
2018-04-17T01:56:21.853Z,29.45
2018-04-17T01:57:28.516Z,29.92
2018-04-17T01:58:34.631Z,35.80
2018-04-17T01:59:41.048Z,29.15
2018-04-17T02:00:47.452Z,29.05
2018-04-17T02:01:54.179Z,32.33
2018-04-17T02:03:00.394Z,34.28
2018-04-17T02:04:06.506Z,34.38
2018-04-17T02:05:13.554Z,31.65
2018-04-17T02:06:19.886Z,36.40
2018-04-17T02:07:26.353Z,33.30
2018-04-17T02:08:37.779Z,32.20
2018-04-17T02:09:44.743Z,33.13
2018-04-17T02:10:52.274Z,37.50
2018-04-17T02:11:59.680Z,33.00
2018-04-17T02:13:06.303Z,33.45
2018-04-17T02:14:15.997Z,32.63
2018-04-17T02:15:22.098Z,32.72
2018-04-17T02:16:28.516Z,32.05
2018-04-17T02:17:35.131Z,34.42
2018-04-17T02:18:41.654Z,30.70
2018-04-17T02:19:48.297Z,31.33
2018-04-17T02:20:54.580Z,35.70
2018-04-17T02:22:01.211Z,34.25
2018-04-17T02:23:07.496Z,35.70
2018-04-17T02:24:17.915Z,31.40
2018-04-17T02:25:24.811Z,34.05
2018-04-17T02:26:31.870Z,36.33
2018-04-17T02:27:38.386Z,32.13
2018-04-17T02:28:45.563Z,30.73
2018-04-17T02:29:52.856Z,32.50
2018-04-17T02:30:59.977Z,33.90
2018-04-17T02:32:05.488Z,34.22
2018-04-17T02:33:12.002Z,36.45
2018-04-17T02:34:18.207Z,35.22
2018-04-17T02:35:24.718Z,35.67
2018-04-17T02:36:31.138Z,41.15
2018-04-17T02:37:37.652Z,36.15
2018-04-17T02:38:43.963Z,34.60
2018-04-17T02:39:50.166Z,37.50
2018-04-17T02:40:56.589Z,38.47
2018-04-17T02:42:03.463Z,39.70
2018-04-17T02:43:10.551Z,35.70
2018-04-17T02:44:17.031Z,40.03
2018-04-17T02:45:23.681Z,33.88
2018-04-17T02:46:29.987Z,35.35
2018-04-17T02:47:36.513Z,38.42
2018-04-17T02:48:43.115Z,30.62
2018-04-17T02:49:49.925Z,34.70
2018-04-17T02:50:56.462Z,38.05
2018-04-17T02:52:02.870Z,34.85
2018-04-17T02:53:08.989Z,39.03
2018-04-17T02:54:15.468Z,39.10
2018-04-17T02:55:27.090Z,37.67
2018-04-17T02:56:36.413Z,35.42
2018-04-17T02:57:42.817Z,33.67
2018-04-17T02:58:49.446Z,36.50
2018-04-17T02:59:56.098Z,41.33
2018-04-17T03:01:02.696Z,39.30
2018-04-17T03:02:08.676Z,36.63
2018-04-17T03:03:15.918Z,34.58
2018-04-17T03:04:22.322Z,36.22
2018-04-17T03:05:28.646Z,34.40
2018-04-17T03:06:35.428Z,36.72
2018-04-17T03:07:42.584Z,38.13
2018-04-17T03:08:51.162Z,33.45
2018-04-17T03:09:58.292Z,37.58
2018-04-17T03:11:04.918Z,37.97
2018-04-17T03:12:12.242Z,39.70
2018-04-17T03:13:18.762Z,38.55
2018-04-17T03:14:25.198Z,39.33
2018-04-17T03:15:31.624Z,37.53
2018-04-17T03:16:43.547Z,35.80
2018-04-17T03:17:52.819Z,36.10
2018-04-17T03:18:59.978Z,34.70
2018-04-17T03:20:06.314Z,35.65
2018-04-17T03:21:12.767Z,38.28
2018-04-17T03:22:19.554Z,37.40
2018-04-17T03:23:28.453Z,37.72
2018-04-17T03:24:36.132Z,40.12
2018-04-17T03:25:43.024Z,36.33
2018-04-17T03:26:50.069Z,34.58
2018-04-17T03:27:56.482Z,33.75
2018-04-17T03:29:03.214Z,33.92
2018-04-17T03:30:09.807Z,35.47
2018-04-17T03:31:16.503Z,37.80
2018-04-17T03:32:23.054Z,38.47
2018-04-17T03:33:31.717Z,30.77
2018-04-17T03:34:37.927Z,38.70
2018-04-17T03:35:44.922Z,32.53
2018-04-17T03:36:51.475Z,33.42
2018-04-17T03:37:59.136Z,33.25
2018-04-17T03:39:06.267Z,32.90
2018-04-17T03:40:12.758Z,34.33
2018-04-17T03:41:19.498Z,37.40
2018-04-17T03:42:26.098Z,33.53
2018-04-17T03:43:32.620Z,37.60
2018-04-17T03:44:39.496Z,37.00
2018-04-17T03:45:45.539Z,36.40
2018-04-17T03:46:52.624Z,34.63
2018-04-17T03:47:58.683Z,32.83
2018-04-17T03:49:05.742Z,34.25
2018-04-17T03:50:13.057Z,34.67
2018-04-17T03:51:20.518Z,35.85
2018-04-17T03:52:26.922Z,31.70
2018-04-17T03:53:34.129Z,33.85
2018-04-17T03:54:42.855Z,30.48
2018-04-17T03:55:49.726Z,30.92
2018-04-17T03:56:56.443Z,35.08
2018-04-17T03:58:03.328Z,33.40
2018-04-17T03:59:09.784Z,33.08
2018-04-17T04:00:16.790Z,29.87
2018-04-17T04:01:24.150Z,32.42
2018-04-17T04:02:30.661Z,36.58
2018-04-17T04:03:37.414Z,28.67
2018-04-17T04:04:43.796Z,28.42
2018-04-17T04:05:50.218Z,25.55
2018-04-17T04:06:57.355Z,32.10
2018-04-17T04:08:04.364Z,28.17
2018-04-17T04:09:11.244Z,31.25
2018-04-17T04:10:19.043Z,24.20
2018-04-17T04:11:25.350Z,27.77
2018-04-17T04:12:31.774Z,27.60
2018-04-17T04:13:39.688Z,29.00
2018-04-17T04:14:46.753Z,28.27
2018-04-17T04:15:53.295Z,33.03
2018-04-17T04:17:10.530Z,31.08
2018-04-17T04:18:27.932Z,30.95
2018-04-17T04:19:45.971Z,32.63
2018-04-17T04:21:03.562Z,30.40
2018-04-17T04:22:20.929Z,31.60
2018-04-17T04:25:48.759Z,31.48
2018-04-17T04:27:08.131Z,33.20
2018-04-17T04:28:15.175Z,37.75
2018-04-17T04:29:21.696Z,34.15
2018-04-17T04:30:28.105Z,39.53
2018-04-17T04:31:35.042Z,41.70
2018-04-17T04:32:41.446Z,33.20
2018-04-17T04:33:47.861Z,35.15
2018-04-17T04:34:54.480Z,39.75
2018-04-17T04:36:00.792Z,35.35
2018-04-17T04:37:07.003Z,30.02
2018-04-17T04:38:13.122Z,27.15
2018-04-17T04:39:19.434Z,29.90
2018-04-17T04:40:25.791Z,35.35
2018-04-17T04:41:31.866Z,32.00
2018-04-17T04:42:38.257Z,32.50
2018-04-17T04:43:44.776Z,36.40
2018-04-17T04:44:51.286Z,31.35
2018-04-17T04:45:58.402Z,34.63
2018-04-17T04:47:04.832Z,29.00
2018-04-17T04:48:11.145Z,28.77
2018-04-17T04:49:17.713Z,32.05
2018-04-17T04:50:24.111Z,34.38
2018-04-17T04:51:30.557Z,35.00
2018-04-17T04:52:37.298Z,36.58
2018-04-17T04:53:44.309Z,31.65
2018-04-17T04:54:50.859Z,35.45
2018-04-17T04:55:57.388Z,36.22
2018-04-17T04:57:03.900Z,33.50
2018-04-17T04:58:10.400Z,36.97
2018-04-17T04:59:16.822Z,34.33
2018-04-17T05:00:23.339Z,31.87
2018-04-17T05:01:32.556Z,34.65
2018-04-17T05:02:40.627Z,33.83
2018-04-17T05:03:47.291Z,29.37
2018-04-17T05:04:53.938Z,29.33
2018-04-17T05:06:00.432Z,34.47
2018-04-17T05:07:06.941Z,30.48
2018-04-17T05:08:13.354Z,35.45
2018-04-17T05:09:19.866Z,30.23
2018-04-17T05:10:26.385Z,27.20
2018-04-17T05:11:33.530Z,27.92
2018-04-17T05:12:40.239Z,32.88
2018-04-17T05:13:46.345Z,34.25
2018-04-17T05:14:52.954Z,29.75
2018-04-17T05:15:59.584Z,33.25
2018-04-17T05:17:05.898Z,26.58
2018-04-17T05:18:12.308Z,32.72
2018-04-17T05:19:19.023Z,30.75
2018-04-17T05:20:25.956Z,30.92
2018-04-17T05:21:31.958Z,29.42
2018-04-17T05:22:42.205Z,25.30
2018-04-17T05:23:48.954Z,29.85
2018-04-17T05:24:55.709Z,28.33
2018-04-17T05:26:02.028Z,32.13
2018-04-17T05:27:08.529Z,29.50
2018-04-17T05:28:14.944Z,29.90
2018-04-17T05:29:21.876Z,33.45
2018-04-17T05:30:28.311Z,31.45
2018-04-17T05:31:34.810Z,32.28
2018-04-17T05:32:41.339Z,35.30
2018-04-17T05:33:47.941Z,35.40
2018-04-17T05:34:55.075Z,36.53
2018-04-17T05:36:01.494Z,36.47
2018-04-17T05:37:08.589Z,33.03
2018-04-17T05:38:15.128Z,34.92
2018-04-17T05:39:22.166Z,35.92
2018-04-17T05:40:29.394Z,33.15
2018-04-17T05:41:35.904Z,33.97
2018-04-17T05:42:42.477Z,34.00
2018-04-17T05:43:49.414Z,29.50
2018-04-17T05:44:55.976Z,32.05
2018-04-17T05:46:02.452Z,33.90
2018-04-17T05:47:09.099Z,34.58
2018-04-17T05:48:15.364Z,36.40
2018-04-17T05:49:21.965Z,38.80
2018-04-17T05:50:28.320Z,32.60
2018-04-17T05:51:34.968Z,31.90
2018-04-17T05:52:41.371Z,35.85
2018-04-17T05:53:47.656Z,35.60
2018-04-17T05:54:53.958Z,37.88
2018-04-17T05:56:00.306Z,34.00
2018-04-17T05:57:06.997Z,32.40
2018-04-17T05:58:13.351Z,34.90
2018-04-17T05:59:21.613Z,28.60
2018-04-17T06:00:29.214Z,30.55
2018-04-17T06:01:35.508Z,30.00
2018-04-17T06:02:41.855Z,35.15
2018-04-17T06:03:48.740Z,34.42
2018-04-17T06:04:55.045Z,30.62
2018-04-17T06:06:02.056Z,28.80
2018-04-17T06:07:08.942Z,34.53
2018-04-17T06:08:15.240Z,30.02
2018-04-17T06:09:22.116Z,31.62
2018-04-17T06:10:28.469Z,23.10
2018-04-17T06:11:34.765Z,31.98
2018-04-17T06:12:41.102Z,28.87
2018-04-17T06:13:47.405Z,27.00
2018-04-17T06:14:56.286Z,28.83
2018-04-17T06:16:03.725Z,22.17
2018-04-17T06:17:10.370Z,26.77
2018-04-17T06:18:16.648Z,26.08
2018-04-17T06:19:22.942Z,23.45
2018-04-17T06:20:28.819Z,24.70
2018-04-17T06:21:35.785Z,24.37
2018-04-17T06:22:42.143Z,25.35
2018-04-17T06:23:48.371Z,21.90
2018-04-17T06:24:54.608Z,28.80
2018-04-17T06:26:01.147Z,26.77
2018-04-17T06:27:08.391Z,27.42
2018-04-17T06:28:14.679Z,23.15
2018-04-17T06:29:21.005Z,28.08
2018-04-17T06:30:29.413Z,25.67
2018-04-17T06:31:36.752Z,22.75
2018-04-17T06:32:42.971Z,24.17
2018-04-17T06:33:49.327Z,23.40
2018-04-17T06:34:55.521Z,24.60
2018-04-17T06:36:01.788Z,23.65
2018-04-17T06:37:07.999Z,23.35
2018-04-17T06:38:14.240Z,20.05
2018-04-17T06:39:20.535Z,21.52
2018-04-17T06:40:26.789Z,24.73
2018-04-17T06:41:33.647Z,20.90
2018-04-17T06:42:39.903Z,20.52
2018-04-17T06:43:45.998Z,21.30
2018-04-17T06:44:52.313Z,22.55
2018-04-17T06:45:58.623Z,19.05
2018-04-17T06:47:06.338Z,23.45
2018-04-17T06:48:12.758Z,25.92
2018-04-17T06:49:19.003Z,21.10
2018-04-17T06:50:26.383Z,18.42
2018-04-17T06:51:32.639Z,18.55
2018-04-17T06:52:38.999Z,20.67
2018-04-17T06:53:45.492Z,18.58
2018-04-17T06:54:51.801Z,18.00
2018-04-17T06:55:58.578Z,18.20
2018-04-17T06:57:04.788Z,16.48
2018-04-17T06:58:10.767Z,19.55
2018-04-17T06:59:17.026Z,19.37
2018-04-17T07:00:23.326Z,19.65
2018-04-17T07:01:29.508Z,21.65
2018-04-17T07:02:35.778Z,19.58
2018-04-17T07:03:42.075Z,18.98
2018-04-17T07:04:48.383Z,18.50
2018-04-17T07:05:54.677Z,17.30
2018-04-17T07:07:00.899Z,16.27
2018-04-17T07:08:07.780Z,18.27
2018-04-17T07:09:14.052Z,16.98
2018-04-17T07:10:20.999Z,15.13
2018-04-17T07:11:27.309Z,16.48
2018-04-17T07:12:33.609Z,14.95
2018-04-17T07:13:39.920Z,16.48
2018-04-17T07:14:46.235Z,13.32
2018-04-17T07:15:52.509Z,18.40
2018-04-17T07:16:58.845Z,16.02
2018-04-17T07:18:04.940Z,19.30
2018-04-17T07:19:10.965Z,18.27
2018-04-17T07:20:17.299Z,19.23
2018-04-17T07:21:23.563Z,16.73
2018-04-17T07:22:32.371Z,18.08
2018-04-17T07:23:39.124Z,21.95
2018-04-17T07:24:46.197Z,20.20
2018-04-17T07:25:52.178Z,18.15
2018-04-17T07:26:58.406Z,21.02
2018-04-17T07:28:07.120Z,21.10
2018-04-17T07:29:15.047Z,23.98
2018-04-17T07:30:22.044Z,19.83
2018-04-17T07:31:28.331Z,19.73
2018-04-17T07:32:34.662Z,20.02
2018-04-17T07:33:41.007Z,21.17
2018-04-17T07:34:47.287Z,17.62
2018-04-17T07:35:53.605Z,21.10
2018-04-17T07:36:59.919Z,19.10
2018-04-17T07:38:08.919Z,19.17
2018-04-17T07:39:14.874Z,19.83
2018-04-17T07:40:21.200Z,16.50
2018-04-17T07:41:27.434Z,20.65
2018-04-17T07:42:34.367Z,17.67
2018-04-17T07:43:40.754Z,16.25
2018-04-17T07:44:47.079Z,15.95
2018-04-17T07:45:53.404Z,18.85
2018-04-17T07:47:10.879Z,21.48
2018-04-17T07:48:31.999Z,15.98
2018-04-17T07:49:37.718Z,18.12
2018-04-17T07:50:44.187Z,18.17
2018-04-17T07:51:50.516Z,20.52
2018-04-17T07:52:56.806Z,20.60
2018-04-17T07:54:03.078Z,23.40
2018-04-17T07:55:08.685Z,23.15
2018-04-17T07:56:15.465Z,18.05
2018-04-17T07:57:21.773Z,21.45
2018-04-17T07:58:27.963Z,20.02
2018-04-17T07:59:35.031Z,20.65
2018-04-17T08:00:41.334Z,20.08
2018-04-17T08:01:47.623Z,17.42
2018-04-17T08:02:54.639Z,17.42
2018-04-17T08:04:02.179Z,19.40
2018-04-17T08:05:10.186Z,19.85
2018-04-17T08:06:16.536Z,19.77
2018-04-17T08:07:22.939Z,18.25
2018-04-17T08:08:28.892Z,19.75
2018-04-17T08:09:35.246Z,18.60
2018-04-17T08:10:43.427Z,17.20
2018-04-17T08:11:51.850Z,18.92
2018-04-17T08:12:58.354Z,18.20
2018-04-17T08:14:05.246Z,19.12
2018-04-17T08:15:11.589Z,20.90
2018-04-17T08:16:18.353Z,19.70
2018-04-17T08:17:24.599Z,17.80
2018-04-17T08:18:30.910Z,19.17
2018-04-17T08:19:38.920Z,21.35
2018-04-17T08:20:46.146Z,20.42
2018-04-17T08:21:52.433Z,20.77
2018-04-17T08:22:58.732Z,19.60
2018-04-17T08:24:04.679Z,17.90
2018-04-17T08:25:11.171Z,20.92
2018-04-17T08:26:17.421Z,17.55
2018-04-17T08:27:23.647Z,21.83
2018-04-17T08:28:29.871Z,19.12
2018-04-17T08:29:36.206Z,17.85
2018-04-17T08:30:42.490Z,14.00
2018-04-17T08:31:48.811Z,16.87
2018-04-17T08:32:55.109Z,16.48
2018-04-17T08:34:01.420Z,20.02
2018-04-17T08:35:09.222Z,15.20
2018-04-17T08:36:16.439Z,15.70
2018-04-17T08:37:22.385Z,16.42
2018-04-17T08:38:28.599Z,14.75
2018-04-17T08:39:34.842Z,14.60
2018-04-17T08:40:41.795Z,12.98
2018-04-17T08:41:48.498Z,13.82
2018-04-17T08:42:54.814Z,14.25
2018-04-17T08:44:01.116Z,17.30
2018-04-17T08:45:07.418Z,15.05
2018-04-17T08:46:13.657Z,16.00
2018-04-17T08:47:19.926Z,17.20
2018-04-17T08:48:26.129Z,13.38
2018-04-17T08:49:32.347Z,14.65
2018-04-17T08:50:38.709Z,10.88
2018-04-17T08:51:44.989Z,11.15
2018-04-17T08:52:51.263Z,11.63
2018-04-17T08:53:57.488Z,11.68
2018-04-17T08:55:04.583Z,14.15
2018-04-17T08:56:11.354Z,12.13
2018-04-17T08:57:17.656Z,11.98
2018-04-17T08:58:23.838Z,11.12
2018-04-17T08:59:30.086Z,12.40
2018-04-17T09:00:36.414Z,12.45
2018-04-17T09:01:42.690Z,10.68
2018-04-17T09:02:49.732Z,13.07
2018-04-17T09:03:55.746Z,13.52
2018-04-17T09:05:02.048Z,12.05
2018-04-17T09:06:08.379Z,12.73
2018-04-17T09:07:14.956Z,14.32
2018-04-17T09:08:21.170Z,14.95
2018-04-17T09:09:27.495Z,13.15
2018-04-17T09:10:33.751Z,13.13
2018-04-17T09:11:41.257Z,13.80
2018-04-17T09:12:47.674Z,13.70
2018-04-17T09:13:54.109Z,13.60
2018-04-17T09:15:01.745Z,14.52
2018-04-17T09:16:08.073Z,12.25
2018-04-17T09:17:14.324Z,13.27
2018-04-17T09:18:20.529Z,13.27
2018-04-17T09:19:26.764Z,14.18
2018-04-17T09:20:33.411Z,12.13
2018-04-17T09:21:39.694Z,12.82
2018-04-17T09:22:45.888Z,13.18
2018-04-17T09:23:52.135Z,10.65
2018-04-17T09:24:58.615Z,10.20
2018-04-17T09:26:04.492Z,11.10
2018-04-17T09:27:15.240Z,9.07
2018-04-17T09:28:21.409Z,9.70
2018-04-17T09:29:27.635Z,9.20
2018-04-17T09:30:33.894Z,9.65
2018-04-17T09:31:40.179Z,12.52
2018-04-17T09:32:46.458Z,9.23
2018-04-17T09:33:52.703Z,12.82
2018-04-17T09:34:59.639Z,10.00
2018-04-17T09:36:05.778Z,8.57
2018-04-17T09:37:12.831Z,9.05
2018-04-17T09:38:19.158Z,9.60
2018-04-17T09:39:25.471Z,7.07
2018-04-17T09:40:31.690Z,11.70
2018-04-17T09:41:37.791Z,11.18
2018-04-17T09:42:45.035Z,10.52
2018-04-17T09:43:52.400Z,12.50
2018-04-17T09:44:58.680Z,7.40
2018-04-17T09:46:04.903Z,12.13
2018-04-17T09:47:11.195Z,7.10
2018-04-17T09:48:17.500Z,10.65
2018-04-17T09:49:23.730Z,10.15
2018-04-17T09:50:30.086Z,8.35
2018-04-17T09:51:36.546Z,8.82
2018-04-17T09:52:42.764Z,9.40
2018-04-17T09:53:49.058Z,9.00
2018-04-17T09:54:55.386Z,11.35
2018-04-17T09:56:02.173Z,14.63
2018-04-17T09:57:08.398Z,16.08
2018-04-17T09:58:14.620Z,10.45
2018-04-17T09:59:20.885Z,11.52
2018-04-17T10:00:26.894Z,11.23
2018-04-17T10:01:33.896Z,11.43
2018-04-17T10:02:40.186Z,12.70
2018-04-17T10:03:46.961Z,10.30
2018-04-17T10:04:53.914Z,10.35
2018-04-17T10:06:01.028Z,11.43
2018-04-17T10:07:08.531Z,11.82
2018-04-17T10:08:15.856Z,11.12
2018-04-17T10:09:23.101Z,13.30
2018-04-17T10:10:30.133Z,9.20
2018-04-17T10:11:37.394Z,7.95
2018-04-17T10:12:44.321Z,11.55
2018-04-17T10:13:51.797Z,8.60
2018-04-17T10:14:59.891Z,8.80
2018-04-17T10:16:07.555Z,14.95
2018-04-17T10:17:16.788Z,9.07
2018-04-17T10:18:28.465Z,9.98
2018-04-17T10:19:35.675Z,8.75
2018-04-17T10:20:42.440Z,8.60
2018-04-17T10:21:48.875Z,10.30
2018-04-17T10:22:56.828Z,9.48
2018-04-17T10:24:03.679Z,8.90
2018-04-17T10:25:10.810Z,7.68
2018-04-17T10:26:17.998Z,8.63
2018-04-17T10:27:24.904Z,7.37
2018-04-17T10:28:31.399Z,10.98
2018-04-17T10:29:41.896Z,8.18
2018-04-17T10:30:49.261Z,7.60
2018-04-17T10:31:56.189Z,10.10
2018-04-17T10:33:04.456Z,9.52
2018-04-17T10:34:11.837Z,7.78
2018-04-17T10:35:18.582Z,7.75
2018-04-17T10:36:25.375Z,9.98
2018-04-17T10:37:33.012Z,8.43
2018-04-17T10:38:43.848Z,8.57
2018-04-17T10:39:51.817Z,11.38
2018-04-17T10:41:00.320Z,11.18
2018-04-17T10:42:07.398Z,8.93
2018-04-17T10:43:14.547Z,11.07
2018-04-17T10:44:21.476Z,12.35
2018-04-17T10:45:28.516Z,11.02
2018-04-17T10:46:35.908Z,11.40
2018-04-17T10:47:42.877Z,12.50
2018-04-17T10:48:49.723Z,9.40
2018-04-17T10:49:56.623Z,12.65
2018-04-17T10:51:02.857Z,10.90
2018-04-17T10:52:09.113Z,10.38
2018-04-17T10:53:16.211Z,9.23
2018-04-17T10:54:24.436Z,11.77
2018-04-17T10:55:33.771Z,11.77
2018-04-17T10:56:39.991Z,11.63
2018-04-17T10:57:46.290Z,11.07
2018-04-17T10:58:53.226Z,9.68
2018-04-17T10:59:59.820Z,12.85
2018-04-17T11:01:05.639Z,11.05
2018-04-17T11:02:11.959Z,12.68
2018-04-17T11:03:18.628Z,10.18
2018-04-17T11:04:25.079Z,10.63
2018-04-17T11:05:31.435Z,9.93
2018-04-17T11:06:38.358Z,10.57
2018-04-17T11:07:45.696Z,11.15
2018-04-17T11:08:52.424Z,10.75
2018-04-17T11:09:58.770Z,9.88
2018-04-17T11:11:07.841Z,10.23
2018-04-17T11:12:14.944Z,10.95
2018-04-17T11:13:21.219Z,12.45
2018-04-17T11:14:27.501Z,10.13
2018-04-17T11:15:33.732Z,16.23
2018-04-17T11:16:40.317Z,10.23
2018-04-17T11:17:47.045Z,10.02
2018-04-17T11:18:59.409Z,11.43
2018-04-17T11:20:05.702Z,10.48
2018-04-17T11:21:12.410Z,10.85
2018-04-17T11:22:18.679Z,10.77
2018-04-17T11:23:24.966Z,10.50
2018-04-17T11:24:31.267Z,11.43
2018-04-17T11:25:38.410Z,11.90
2018-04-17T11:26:44.674Z,10.85
2018-04-17T11:27:50.937Z,12.80
2018-04-17T11:28:57.219Z,12.50
2018-04-17T11:30:03.436Z,13.20
2018-04-17T11:31:09.752Z,10.63
2018-04-17T11:32:16.082Z,12.77
2018-04-17T11:33:22.813Z,11.75
2018-04-17T11:34:29.142Z,11.30
2018-04-17T11:35:36.680Z,10.50
2018-04-17T11:36:42.935Z,15.07
2018-04-17T11:37:49.171Z,10.77
2018-04-17T11:38:55.568Z,12.30
2018-04-17T11:40:01.250Z,14.00
2018-04-17T11:41:07.602Z,13.40
2018-04-17T11:42:15.286Z,11.80
2018-04-17T11:43:22.542Z,12.02
2018-04-17T11:44:28.787Z,11.98
2018-04-17T11:45:35.082Z,14.70
2018-04-17T11:46:41.408Z,12.13
2018-04-17T11:47:47.730Z,11.77
2018-04-17T11:48:57.210Z,11.80
2018-04-17T11:50:03.511Z,12.75
2018-04-17T11:51:09.888Z,11.20
2018-04-17T11:52:16.443Z,15.52
2018-04-17T11:53:22.779Z,15.35
2018-04-17T11:54:29.052Z,13.32
2018-04-17T11:55:35.300Z,12.07
2018-04-17T11:56:41.581Z,12.43
2018-04-17T11:57:49.616Z,11.52
2018-04-17T11:58:57.619Z,11.98
2018-04-17T12:00:04.258Z,14.13
2018-04-17T12:01:10.513Z,13.50
2018-04-17T12:02:20.116Z,11.93
2018-04-17T12:03:28.603Z,12.15
2018-04-17T12:04:34.864Z,14.75
2018-04-17T12:05:41.172Z,13.00
2018-04-17T12:06:47.169Z,12.93
2018-04-17T12:07:53.162Z,12.95
2018-04-17T12:08:59.920Z,13.15
2018-04-17T12:10:05.995Z,13.23
2018-04-17T12:11:12.740Z,11.43
2018-04-17T12:12:19.162Z,13.20
2018-04-17T12:13:27.832Z,13.85
2018-04-17T12:14:34.857Z,13.52
2018-04-17T12:15:41.193Z,13.55
2018-04-17T12:16:47.507Z,13.07
2018-04-17T12:17:53.888Z,10.63
2018-04-17T12:18:59.986Z,13.07
2018-04-17T12:20:06.412Z,12.60
2018-04-17T12:21:12.744Z,12.25
2018-04-17T12:22:19.081Z,12.18
2018-04-17T12:23:25.512Z,11.07
2018-04-17T12:24:32.943Z,13.27
2018-04-17T12:25:39.203Z,11.50
2018-04-17T12:26:45.508Z,13.57
2018-04-17T12:27:51.865Z,11.65
2018-04-17T12:28:59.938Z,12.25
2018-04-17T12:30:06.190Z,10.82
2018-04-17T12:31:12.220Z,14.15
2018-04-17T12:32:18.478Z,12.90
2018-04-17T12:33:25.080Z,14.23
2018-04-17T12:34:31.631Z,12.43
2018-04-17T12:35:37.857Z,12.98
2018-04-17T12:36:44.152Z,13.23
2018-04-17T12:37:50.369Z,11.77
2018-04-17T12:38:56.711Z,15.30
2018-04-17T12:40:03.586Z,12.07
2018-04-17T12:41:09.930Z,13.13
2018-04-17T12:42:16.210Z,12.88
2018-04-17T12:43:22.464Z,13.27
2018-04-17T12:44:36.163Z,14.15
2018-04-17T12:45:42.375Z,11.60
2018-04-17T12:46:48.673Z,13.75
2018-04-17T12:47:55.020Z,13.57
2018-04-17T12:49:01.290Z,13.60
2018-04-17T12:50:07.582Z,13.95
2018-04-17T12:51:13.911Z,12.98
2018-04-17T12:52:20.236Z,13.05
2018-04-17T12:53:26.423Z,12.10
2018-04-17T12:54:32.778Z,12.68
2018-04-17T12:55:39.042Z,12.45
2018-04-17T12:56:45.362Z,13.90
2018-04-17T12:57:51.650Z,14.85
2018-04-17T12:58:57.892Z,13.60
2018-04-17T13:00:04.637Z,13.38
2018-04-17T13:01:10.881Z,14.23
2018-04-17T13:02:17.221Z,13.98
2018-04-17T13:03:23.531Z,14.70
2018-04-17T13:04:29.895Z,13.95
2018-04-17T13:05:36.150Z,17.10
2018-04-17T13:06:42.448Z,12.48
2018-04-17T13:07:49.302Z,14.98
2018-04-17T13:08:55.601Z,11.98
2018-04-17T13:10:01.944Z,12.37
2018-04-17T13:11:08.233Z,13.77
2018-04-17T13:12:14.618Z,13.40
2018-04-17T13:13:20.857Z,13.77
2018-04-17T13:14:27.192Z,13.98
2018-04-17T13:15:34.732Z,13.70
2018-04-17T13:16:42.703Z,12.25
2018-04-17T13:17:49.210Z,12.77
2018-04-17T13:18:55.497Z,13.18
2018-04-17T13:20:01.601Z,12.90
2018-04-17T13:21:07.618Z,15.93
2018-04-17T13:22:17.106Z,13.30
2018-04-17T13:23:23.398Z,11.57
2018-04-17T13:24:29.435Z,11.75
2018-04-17T13:25:36.525Z,12.52
2018-04-17T13:26:43.733Z,17.80
2018-04-17T13:27:50.250Z,12.23
2018-04-17T13:28:56.493Z,15.10
2018-04-17T13:30:02.823Z,15.80
2018-04-17T13:31:10.164Z,12.23
2018-04-17T13:32:17.749Z,13.77
2018-04-17T13:33:23.755Z,11.82
2018-04-17T13:34:29.983Z,13.30
2018-04-17T13:35:36.337Z,13.88
2018-04-17T13:36:42.327Z,14.02
2018-04-17T13:37:48.618Z,10.88
2018-04-17T13:38:54.834Z,13.35
2018-04-17T13:40:01.193Z,13.45
2018-04-17T13:41:07.442Z,15.10
2018-04-17T13:42:14.291Z,12.23
2018-04-17T13:43:20.605Z,12.20
2018-04-17T13:44:26.924Z,13.05
2018-04-17T13:45:33.226Z,14.52
2018-04-17T13:46:39.805Z,12.10
2018-04-17T13:47:47.381Z,10.93
2018-04-17T13:48:53.737Z,14.05
2018-04-17T13:50:00.207Z,13.55
2018-04-17T13:51:07.000Z,16.12
2018-04-17T13:52:13.309Z,13.35
2018-04-17T13:53:19.495Z,14.25
2018-04-17T13:54:25.798Z,15.98
2018-04-17T13:55:32.066Z,12.13
2018-04-17T13:56:38.396Z,13.88
2018-04-17T13:57:44.699Z,12.60
2018-04-17T13:58:51.011Z,12.68
2018-04-17T13:59:57.350Z,13.15
2018-04-17T14:01:03.865Z,14.13
2018-04-17T14:02:09.817Z,14.68
2018-04-17T14:03:16.023Z,14.10
2018-04-17T14:04:23.132Z,13.45
2018-04-17T14:05:29.499Z,13.68
2018-04-17T14:06:36.586Z,15.75
2018-04-17T14:07:43.659Z,12.80
2018-04-17T14:08:49.949Z,14.60
2018-04-17T14:09:56.292Z,13.62
2018-04-17T14:11:03.498Z,13.40
2018-04-17T14:12:09.800Z,12.80
2018-04-17T14:13:16.003Z,11.50
2018-04-17T14:14:22.256Z,11.30
2018-04-17T14:15:28.561Z,11.65
2018-04-17T14:16:34.961Z,11.43
2018-04-17T14:17:41.303Z,11.32
2018-04-17T14:18:47.615Z,10.48
2018-04-17T14:19:54.852Z,11.55
2018-04-17T14:21:01.143Z,10.98
2018-04-17T14:22:07.494Z,13.45
2018-04-17T14:23:14.294Z,13.18
2018-04-17T14:24:21.203Z,17.40
2018-04-17T14:25:27.557Z,15.00